X  Schließen METAR Luftfahrt Wetterdaten     EHBK Maastricht Aachen Airport
Temperatur
16°C Temperatur
14°C Taupunkt
88% Feuchtigkeit



Wind
4 M/S
8 MPS
13 KM/S
7 KTS



260°
W
Aktuelle Wetterlage

Teilweise bewölkt Teilweise bewölkt
Luftdruck 1006.77 (hPa) - 29.73 (inHg)
Sichtweite 6 (Meile) - 9.7 (Km)
Flughafen
Flughafen Code EHBK

Position : Maastricht Aachen Airport
Entfernung: 26 (Km)

Metar:
EHBK 211525Z AUTO 26007KT 190V310 9999 FEW026/// BKN044/// 16/14 Q1007 TEMPO 4000 SHRA BKN012 SCT030CB

Zeit: 21-05-2024 17:25 CEST